sensor_id;sensor_type;location;lat;lon;timestamp;P1;durP1;ratioP1;P2;durP2;ratioP2
25948;SDS011;13961;51.178;4.448;2022-11-20T00:02:00;26.08;;;12.48;;
25948;SDS011;13961;51.178;4.448;2022-11-20T00:04:26;23.23;;;11.43;;
25948;SDS011;13961;51.178;4.448;2022-11-20T00:06:53;20.85;;;11.88;;
25948;SDS011;13961;51.178;4.448;2022-11-20T00:09:19;26.75;;;12.25;;
25948;SDS011;13961;51.178;4.448;2022-11-20T00:11:46;24.80;;;12.68;;
25948;SDS011;13961;51.178;4.448;2022-11-20T00:14:15;26.35;;;12.20;;
25948;SDS011;13961;51.178;4.448;2022-11-20T00:16:42;28.92;;;12.80;;
25948;SDS011;13961;51.178;4.448;2022-11-20T00:19:09;21.45;;;11.30;;
25948;SDS011;13961;51.178;4.448;2022-11-20T00:21:38;26.10;;;12.52;;
25948;SDS011;13961;51.178;4.448;2022-11-20T00:24:04;24.92;;;11.80;;
25948;SDS011;13961;51.178;4.448;2022-11-20T00:26:30;24.40;;;11.57;;
25948;SDS011;13961;51.178;4.448;2022-11-20T00:28:57;27.05;;;12.63;;
25948;SDS011;13961;51.178;4.448;2022-11-20T00:31:25;25.00;;;12.88;;
25948;SDS011;13961;51.178;4.448;2022-11-20T00:33:51;24.73;;;12.63;;
25948;SDS011;13961;51.178;4.448;2022-11-20T00:36:20;21.42;;;12.18;;
25948;SDS011;13961;51.178;4.448;2022-11-20T00:38:51;21.60;;;11.82;;
25948;SDS011;13961;51.178;4.448;2022-11-20T00:43:51;23.08;;;11.98;;
25948;SDS011;13961;51.178;4.448;2022-11-20T00:48:50;22.27;;;11.88;;
25948;SDS011;13961;51.178;4.448;2022-11-20T00:51:18;22.83;;;11.95;;
25948;SDS011;13961;51.178;4.448;2022-11-20T00:53:47;23.63;;;12.38;;
25948;SDS011;13961;51.178;4.448;2022-11-20T00:56:15;25.65;;;12.30;;
25948;SDS011;13961;51.178;4.448;2022-11-20T00:58:44;24.15;;;12.30;;
25948;SDS011;13961;51.178;4.448;2022-11-20T01:01:14;24.05;;;12.15;;
25948;SDS011;13961;51.178;4.448;2022-11-20T01:03:48;20.77;;;11.57;;
25948;SDS011;13961;51.178;4.448;2022-11-20T01:08:50;25.42;;;12.18;;
25948;SDS011;13961;51.178;4.448;2022-11-20T01:11:21;21.30;;;11.57;;
25948;SDS011;13961;51.178;4.448;2022-11-20T01:13:50;22.92;;;11.52;;
25948;SDS011;13961;51.178;4.448;2022-11-20T01:16:18;26.58;;;11.93;;
25948;SDS011;13961;51.178;4.448;2022-11-20T01:18:47;26.70;;;12.25;;
25948;SDS011;13961;51.178;4.448;2022-11-20T01:21:19;23.92;;;11.85;;
25948;SDS011;13961;51.178;4.448;2022-11-20T01:23:52;25.95;;;12.30;;
25948;SDS011;13961;51.178;4.448;2022-11-20T01:26:19;14.25;;;8.25;;
25948;SDS011;13961;51.178;4.448;2022-11-20T01:28:48;26.77;;;12.07;;
25948;SDS011;13961;51.178;4.448;2022-11-20T01:31:22;23.17;;;12.68;;
25948;SDS011;13961;51.178;4.448;2022-11-20T01:33:53;26.58;;;12.23;;
25948;SDS011;13961;51.178;4.448;2022-11-20T01:36:23;21.67;;;11.48;;
25948;SDS011;13961;51.178;4.448;2022-11-20T01:38:52;21.17;;;11.18;;
25948;SDS011;13961;51.178;4.448;2022-11-20T01:41:19;23.55;;;11.68;;
25948;SDS011;13961;51.178;4.448;2022-11-20T01:44:08;28.98;;;12.00;;
25948;SDS011;13961;51.178;4.448;2022-11-20T01:56:56;22.63;;;11.00;;
25948;SDS011;13961;51.178;4.448;2022-11-20T01:59:26;24.83;;;12.32;;
25948;SDS011;13961;51.178;4.448;2022-11-20T02:01:54;25.13;;;11.63;;
25948;SDS011;13961;51.178;4.448;2022-11-20T02:04:22;24.77;;;12.50;;
25948;SDS011;13961;51.178;4.448;2022-11-20T02:06:55;24.95;;;12.27;;
25948;SDS011;13961;51.178;4.448;2022-11-20T02:09:27;24.23;;;11.93;;
25948;SDS011;13961;51.178;4.448;2022-11-20T02:16:51;24.95;;;12.77;;
25948;SDS011;13961;51.178;4.448;2022-11-20T02:19:27;24.45;;;12.05;;
25948;SDS011;13961;51.178;4.448;2022-11-20T02:24:34;25.67;;;13.15;;
25948;SDS011;13961;51.178;4.448;2022-11-20T02:27:02;26.95;;;13.32;;
25948;SDS011;13961;51.178;4.448;2022-11-20T02:29:37;27.13;;;13.00;;
25948;SDS011;13961;51.178;4.448;2022-11-20T02:32:25;25.25;;;12.73;;
25948;SDS011;13961;51.178;4.448;2022-11-20T02:35:39;28.75;;;13.48;;
25948;SDS011;13961;51.178;4.448;2022-11-20T02:37:45;26.17;;;13.05;;
25948;SDS011;13961;51.178;4.448;2022-11-20T02:40:14;29.00;;;13.02;;
25948;SDS011;13961;51.178;4.448;2022-11-20T02:42:41;30.58;;;14.10;;
25948;SDS011;13961;51.178;4.448;2022-11-20T02:45:07;31.02;;;13.50;;
25948;SDS011;13961;51.178;4.448;2022-11-20T02:47:34;28.33;;;13.52;;
25948;SDS011;13961;51.178;4.448;2022-11-20T02:50:03;28.55;;;14.38;;
25948;SDS011;13961;51.178;4.448;2022-11-20T02:52:30;27.98;;;13.50;;
25948;SDS011;13961;51.178;4.448;2022-11-20T02:54:56;27.02;;;14.40;;
25948;SDS011;13961;51.178;4.448;2022-11-20T02:57:22;31.50;;;13.70;;
25948;SDS011;13961;51.178;4.448;2022-11-20T02:59:50;26.40;;;13.35;;
25948;SDS011;13961;51.178;4.448;2022-11-20T03:02:17;31.30;;;14.18;;
25948;SDS011;13961;51.178;4.448;2022-11-20T03:04:43;27.58;;;13.13;;
25948;SDS011;13961;51.178;4.448;2022-11-20T03:07:11;27.67;;;13.32;;
25948;SDS011;13961;51.178;4.448;2022-11-20T03:09:38;31.48;;;14.27;;
25948;SDS011;13961;51.178;4.448;2022-11-20T03:12:05;31.48;;;13.73;;
25948;SDS011;13961;51.178;4.448;2022-11-20T03:14:34;29.85;;;13.55;;
25948;SDS011;13961;51.178;4.448;2022-11-20T03:17:00;28.65;;;13.68;;
25948;SDS011;13961;51.178;4.448;2022-11-20T03:19:26;33.05;;;13.75;;
25948;SDS011;13961;51.178;4.448;2022-11-20T03:21:53;32.55;;;13.63;;
25948;SDS011;13961;51.178;4.448;2022-11-20T03:24:19;27.13;;;13.40;;
25948;SDS011;13961;51.178;4.448;2022-11-20T03:26:48;29.23;;;14.20;;
25948;SDS011;13961;51.178;4.448;2022-11-20T03:29:16;29.23;;;14.13;;
25948;SDS011;13961;51.178;4.448;2022-11-20T03:31:43;31.25;;;14.45;;
25948;SDS011;13961;51.178;4.448;2022-11-20T03:34:10;33.58;;;14.25;;
25948;SDS011;13961;51.178;4.448;2022-11-20T03:36:40;26.98;;;14.27;;
25948;SDS011;13961;51.178;4.448;2022-11-20T03:39:10;30.08;;;14.27;;
25948;SDS011;13961;51.178;4.448;2022-11-20T03:41:37;29.23;;;14.07;;
25948;SDS011;13961;51.178;4.448;2022-11-20T03:44:05;36.45;;;16.75;;
25948;SDS011;13961;51.178;4.448;2022-11-20T03:46:33;35.20;;;16.45;;
25948;SDS011;13961;51.178;4.448;2022-11-20T03:49:00;39.60;;;16.83;;
25948;SDS011;13961;51.178;4.448;2022-11-20T03:51:36;34.33;;;16.58;;
25948;SDS011;13961;51.178;4.448;2022-11-20T03:54:05;39.42;;;17.02;;
25948;SDS011;13961;51.178;4.448;2022-11-20T03:56:34;35.30;;;14.82;;
25948;SDS011;13961;51.178;4.448;2022-11-20T03:59:03;37.08;;;15.93;;
25948;SDS011;13961;51.178;4.448;2022-11-20T04:01:32;42.10;;;16.90;;
25948;SDS011;13961;51.178;4.448;2022-11-20T04:04:00;42.85;;;17.83;;
25948;SDS011;13961;51.178;4.448;2022-11-20T04:06:28;41.45;;;17.00;;
25948;SDS011;13961;51.178;4.448;2022-11-20T04:08:58;38.83;;;17.05;;
25948;SDS011;13961;51.178;4.448;2022-11-20T04:11:28;44.53;;;18.75;;
25948;SDS011;13961;51.178;4.448;2022-11-20T04:13:56;41.58;;;18.25;;
25948;SDS011;13961;51.178;4.448;2022-11-20T04:18:59;44.25;;;19.63;;
25948;SDS011;13961;51.178;4.448;2022-11-20T04:21:26;41.88;;;18.30;;
25948;SDS011;13961;51.178;4.448;2022-11-20T04:23:55;39.08;;;17.17;;
25948;SDS011;13961;51.178;4.448;2022-11-20T04:26:22;45.63;;;17.42;;
25948;SDS011;13961;51.178;4.448;2022-11-20T04:28:50;41.50;;;17.48;;
25948;SDS011;13961;51.178;4.448;2022-11-20T04:31:20;42.05;;;18.02;;
25948;SDS011;13961;51.178;4.448;2022-11-20T04:33:48;45.60;;;17.88;;
25948;SDS011;13961;51.178;4.448;2022-11-20T04:36:24;43.90;;;17.35;;
25948;SDS011;13961;51.178;4.448;2022-11-20T04:38:55;47.03;;;18.08;;
25948;SDS011;13961;51.178;4.448;2022-11-20T04:41:25;43.53;;;17.80;;
25948;SDS011;13961;51.178;4.448;2022-11-20T04:43:54;42.97;;;19.10;;
25948;SDS011;13961;51.178;4.448;2022-11-20T04:46:25;44.45;;;18.63;;
25948;SDS011;13961;51.178;4.448;2022-11-20T04:48:52;40.53;;;17.30;;
25948;SDS011;13961;51.178;4.448;2022-11-20T04:51:19;41.95;;;17.75;;
25948;SDS011;13961;51.178;4.448;2022-11-20T04:53:48;44.17;;;17.88;;
25948;SDS011;13961;51.178;4.448;2022-11-20T04:56:14;43.00;;;17.77;;
25948;SDS011;13961;51.178;4.448;2022-11-20T04:58:40;40.88;;;17.63;;
25948;SDS011;13961;51.178;4.448;2022-11-20T05:01:07;42.28;;;17.35;;
25948;SDS011;13961;51.178;4.448;2022-11-20T05:03:40;39.97;;;16.75;;
25948;SDS011;13961;51.178;4.448;2022-11-20T05:06:10;46.78;;;19.25;;
25948;SDS011;13961;51.178;4.448;2022-11-20T05:08:38;44.42;;;17.65;;
25948;SDS011;13961;51.178;4.448;2022-11-20T05:11:12;43.13;;;17.90;;
25948;SDS011;13961;51.178;4.448;2022-11-20T05:13:41;42.38;;;17.08;;
25948;SDS011;13961;51.178;4.448;2022-11-20T05:16:10;44.08;;;18.02;;
25948;SDS011;13961;51.178;4.448;2022-11-20T05:18:40;41.40;;;18.43;;
25948;SDS011;13961;51.178;4.448;2022-11-20T05:21:07;41.13;;;17.85;;
25948;SDS011;13961;51.178;4.448;2022-11-20T05:23:34;54.85;;;19.52;;
25948;SDS011;13961;51.178;4.448;2022-11-20T05:26:00;43.03;;;19.45;;
25948;SDS011;13961;51.178;4.448;2022-11-20T05:28:29;41.30;;;18.73;;
25948;SDS011;13961;51.178;4.448;2022-11-20T05:30:55;49.15;;;19.33;;
25948;SDS011;13961;51.178;4.448;2022-11-20T05:33:27;46.60;;;17.75;;
25948;SDS011;13961;51.178;4.448;2022-11-20T05:35:53;47.50;;;18.50;;
25948;SDS011;13961;51.178;4.448;2022-11-20T05:38:29;39.33;;;16.63;;
25948;SDS011;13961;51.178;4.448;2022-11-20T05:41:06;49.55;;;19.38;;
25948;SDS011;13961;51.178;4.448;2022-11-20T05:43:38;49.30;;;18.77;;
25948;SDS011;13961;51.178;4.448;2022-11-20T05:46:07;48.85;;;18.80;;
25948;SDS011;13961;51.178;4.448;2022-11-20T05:48:36;47.17;;;18.55;;
25948;SDS011;13961;51.178;4.448;2022-11-20T05:51:03;38.00;;;17.17;;
25948;SDS011;13961;51.178;4.448;2022-11-20T05:53:31;39.05;;;17.45;;
25948;SDS011;13961;51.178;4.448;2022-11-20T05:56:05;44.15;;;18.30;;
25948;SDS011;13961;51.178;4.448;2022-11-20T05:58:35;43.10;;;17.50;;
25948;SDS011;13961;51.178;4.448;2022-11-20T06:01:06;42.38;;;17.88;;
25948;SDS011;13961;51.178;4.448;2022-11-20T06:03:41;43.00;;;17.98;;
25948;SDS011;13961;51.178;4.448;2022-11-20T06:06:10;45.28;;;18.48;;
25948;SDS011;13961;51.178;4.448;2022-11-20T06:08:36;45.38;;;18.27;;
25948;SDS011;13961;51.178;4.448;2022-11-20T06:11:07;43.53;;;18.08;;
25948;SDS011;13961;51.178;4.448;2022-11-20T06:13:36;44.70;;;17.80;;
25948;SDS011;13961;51.178;4.448;2022-11-20T06:16:04;45.75;;;18.35;;
25948;SDS011;13961;51.178;4.448;2022-11-20T06:18:33;46.42;;;18.17;;
25948;SDS011;13961;51.178;4.448;2022-11-20T06:21:03;41.97;;;18.13;;
25948;SDS011;13961;51.178;4.448;2022-11-20T06:23:32;44.70;;;18.33;;
25948;SDS011;13961;51.178;4.448;2022-11-20T06:26:05;43.10;;;17.23;;
25948;SDS011;13961;51.178;4.448;2022-11-20T06:28:36;50.10;;;17.95;;
25948;SDS011;13961;51.178;4.448;2022-11-20T06:31:02;48.30;;;18.23;;
25948;SDS011;13961;51.178;4.448;2022-11-20T06:33:29;46.35;;;18.83;;
25948;SDS011;13961;51.178;4.448;2022-11-20T06:35:58;44.47;;;18.58;;
25948;SDS011;13961;51.178;4.448;2022-11-20T06:38:26;45.28;;;18.52;;
25948;SDS011;13961;51.178;4.448;2022-11-20T06:40:52;49.28;;;18.85;;
25948;SDS011;13961;51.178;4.448;2022-11-20T06:43:18;47.35;;;19.30;;
25948;SDS011;13961;51.178;4.448;2022-11-20T06:45:46;44.15;;;18.52;;
25948;SDS011;13961;51.178;4.448;2022-11-20T06:48:17;46.78;;;18.75;;
25948;SDS011;13961;51.178;4.448;2022-11-20T06:50:43;50.55;;;19.17;;
25948;SDS011;13961;51.178;4.448;2022-11-20T06:53:09;42.15;;;17.23;;
25948;SDS011;13961;51.178;4.448;2022-11-20T06:55:41;44.65;;;18.10;;
25948;SDS011;13961;51.178;4.448;2022-11-20T06:58:12;53.63;;;19.50;;
25948;SDS011;13961;51.178;4.448;2022-11-20T07:00:39;57.53;;;19.25;;
25948;SDS011;13961;51.178;4.448;2022-11-20T07:05:35;41.75;;;17.58;;
25948;SDS011;13961;51.178;4.448;2022-11-20T07:08:02;43.63;;;18.25;;
25948;SDS011;13961;51.178;4.448;2022-11-20T07:10:28;48.20;;;19.00;;
25948;SDS011;13961;51.178;4.448;2022-11-20T07:12:55;50.28;;;17.77;;
25948;SDS011;13961;51.178;4.448;2022-11-20T07:15:23;49.33;;;18.45;;
25948;SDS011;13961;51.178;4.448;2022-11-20T07:17:53;52.45;;;19.80;;
25948;SDS011;13961;51.178;4.448;2022-11-20T07:20:18;42.08;;;17.80;;
25948;SDS011;13961;51.178;4.448;2022-11-20T07:22:46;44.67;;;19.05;;
25948;SDS011;13961;51.178;4.448;2022-11-20T07:25:12;46.80;;;17.88;;
25948;SDS011;13961;51.178;4.448;2022-11-20T07:27:38;46.60;;;18.80;;
25948;SDS011;13961;51.178;4.448;2022-11-20T07:30:04;43.65;;;18.15;;
25948;SDS011;13961;51.178;4.448;2022-11-20T07:32:36;45.90;;;17.73;;
25948;SDS011;13961;51.178;4.448;2022-11-20T07:35:03;47.75;;;17.75;;
25948;SDS011;13961;51.178;4.448;2022-11-20T07:37:29;47.20;;;18.08;;
25948;SDS011;13961;51.178;4.448;2022-11-20T07:39:55;43.63;;;18.08;;
25948;SDS011;13961;51.178;4.448;2022-11-20T07:42:21;46.70;;;18.15;;
25948;SDS011;13961;51.178;4.448;2022-11-20T07:44:46;46.53;;;18.83;;
25948;SDS011;13961;51.178;4.448;2022-11-20T07:47:12;41.20;;;18.13;;
25948;SDS011;13961;51.178;4.448;2022-11-20T07:49:38;44.53;;;18.67;;
25948;SDS011;13961;51.178;4.448;2022-11-20T07:52:05;42.97;;;17.92;;
25948;SDS011;13961;51.178;4.448;2022-11-20T07:54:33;43.53;;;16.85;;
25948;SDS011;13961;51.178;4.448;2022-11-20T07:57:00;43.80;;;18.02;;
25948;SDS011;13961;51.178;4.448;2022-11-20T07:59:26;44.92;;;19.08;;
25948;SDS011;13961;51.178;4.448;2022-11-20T08:01:52;47.33;;;18.08;;
25948;SDS011;13961;51.178;4.448;2022-11-20T08:04:18;47.10;;;18.77;;
25948;SDS011;13961;51.178;4.448;2022-11-20T08:09:13;44.85;;;18.10;;
25948;SDS011;13961;51.178;4.448;2022-11-20T08:11:40;42.35;;;17.85;;
25948;SDS011;13961;51.178;4.448;2022-11-20T08:14:26;45.55;;;18.75;;
25948;SDS011;13961;51.178;4.448;2022-11-20T08:16:52;48.13;;;18.73;;
25948;SDS011;13961;51.178;4.448;2022-11-20T08:19:18;37.95;;;17.48;;
25948;SDS011;13961;51.178;4.448;2022-11-20T08:21:45;48.00;;;19.10;;
25948;SDS011;13961;51.178;4.448;2022-11-20T08:24:12;41.88;;;17.85;;
25948;SDS011;13961;51.178;4.448;2022-11-20T08:26:39;45.45;;;17.55;;
25948;SDS011;13961;51.178;4.448;2022-11-20T08:29:06;42.60;;;17.00;;
25948;SDS011;13961;51.178;4.448;2022-11-20T08:31:32;40.53;;;16.90;;
25948;SDS011;13961;51.178;4.448;2022-11-20T08:34:00;44.05;;;17.33;;
25948;SDS011;13961;51.178;4.448;2022-11-20T08:36:27;38.97;;;16.27;;
25948;SDS011;13961;51.178;4.448;2022-11-20T08:38:55;37.05;;;16.40;;
25948;SDS011;13961;51.178;4.448;2022-11-20T08:41:30;44.40;;;17.77;;
25948;SDS011;13961;51.178;4.448;2022-11-20T08:44:02;46.00;;;17.15;;
25948;SDS011;13961;51.178;4.448;2022-11-20T08:46:34;41.70;;;17.90;;
25948;SDS011;13961;51.178;4.448;2022-11-20T08:49:07;36.50;;;16.45;;
25948;SDS011;13961;51.178;4.448;2022-11-20T08:51:35;40.20;;;16.33;;
25948;SDS011;13961;51.178;4.448;2022-11-20T08:54:01;39.28;;;16.73;;
25948;SDS011;13961;51.178;4.448;2022-11-20T08:56:29;42.65;;;16.98;;
25948;SDS011;13961;51.178;4.448;2022-11-20T08:58:56;45.00;;;16.77;;
25948;SDS011;13961;51.178;4.448;2022-11-20T09:01:25;43.17;;;18.27;;
25948;SDS011;13961;51.178;4.448;2022-11-20T09:06:22;41.03;;;17.10;;
25948;SDS011;13961;51.178;4.448;2022-11-20T09:08:52;41.38;;;16.88;;
25948;SDS011;13961;51.178;4.448;2022-11-20T09:11:21;43.47;;;17.38;;
25948;SDS011;13961;51.178;4.448;2022-11-20T09:13:48;43.08;;;16.80;;
25948;SDS011;13961;51.178;4.448;2022-11-20T09:16:16;43.70;;;17.08;;
25948;SDS011;13961;51.178;4.448;2022-11-20T09:18:42;43.88;;;17.58;;
25948;SDS011;13961;51.178;4.448;2022-11-20T09:21:11;43.05;;;16.60;;
25948;SDS011;13961;51.178;4.448;2022-11-20T09:23:38;39.47;;;16.98;;
25948;SDS011;13961;51.178;4.448;2022-11-20T09:26:09;48.72;;;17.17;;
25948;SDS011;13961;51.178;4.448;2022-11-20T09:28:38;46.13;;;18.80;;
25948;SDS011;13961;51.178;4.448;2022-11-20T09:31:23;43.72;;;18.52;;
25948;SDS011;13961;51.178;4.448;2022-11-20T09:36:19;44.40;;;17.08;;
25948;SDS011;13961;51.178;4.448;2022-11-20T09:41:38;44.78;;;17.48;;
25948;SDS011;13961;51.178;4.448;2022-11-20T09:54:49;51.75;;;17.70;;
25948;SDS011;13961;51.178;4.448;2022-11-20T09:57:21;47.88;;;18.42;;
25948;SDS011;13961;51.178;4.448;2022-11-20T09:59:56;50.28;;;17.88;;
25948;SDS011;13961;51.178;4.448;2022-11-20T10:02:33;50.00;;;18.42;;
25948;SDS011;13961;51.178;4.448;2022-11-20T10:05:18;50.42;;;18.55;;
25948;SDS011;13961;51.178;4.448;2022-11-20T10:08:11;48.80;;;18.52;;
25948;SDS011;13961;51.178;4.448;2022-11-20T10:10:46;58.35;;;18.45;;
25948;SDS011;13961;51.178;4.448;2022-11-20T10:13:20;53.35;;;18.08;;
25948;SDS011;13961;51.178;4.448;2022-11-20T10:19:06;66.97;;;19.13;;
25948;SDS011;13961;51.178;4.448;2022-11-20T10:24:52;60.65;;;19.80;;
25948;SDS011;13961;51.178;4.448;2022-11-20T10:27:50;55.22;;;18.75;;
25948;SDS011;13961;51.178;4.448;2022-11-20T10:30:42;58.00;;;18.92;;
25948;SDS011;13961;51.178;4.448;2022-11-20T10:33:15;44.72;;;14.43;;
25948;SDS011;13961;51.178;4.448;2022-11-20T10:38:31;66.50;;;18.50;;
25948;SDS011;13961;51.178;4.448;2022-11-20T10:41:02;64.05;;;20.27;;
25948;SDS011;13961;51.178;4.448;2022-11-20T10:43:49;65.30;;;19.52;;
25948;SDS011;13961;51.178;4.448;2022-11-20T10:46:23;70.93;;;19.92;;
25948;SDS011;13961;51.178;4.448;2022-11-20T10:48:51;59.80;;;19.67;;
25948;SDS011;13961;51.178;4.448;2022-11-20T10:54:22;60.80;;;19.70;;
25948;SDS011;13961;51.178;4.448;2022-11-20T11:02:31;65.78;;;20.77;;
25948;SDS011;13961;51.178;4.448;2022-11-20T11:04:59;62.85;;;19.52;;
25948;SDS011;13961;51.178;4.448;2022-11-20T11:07:51;66.75;;;21.65;;
25948;SDS011;13961;51.178;4.448;2022-11-20T11:10:23;70.93;;;20.65;;
25948;SDS011;13961;51.178;4.448;2022-11-20T11:13:21;72.03;;;20.03;;
25948;SDS011;13961;51.178;4.448;2022-11-20T11:15:49;61.95;;;19.08;;
25948;SDS011;13961;51.178;4.448;2022-11-20T11:18:29;72.40;;;21.08;;
25948;SDS011;13961;51.178;4.448;2022-11-20T11:20:57;58.67;;;19.42;;
25948;SDS011;13961;51.178;4.448;2022-11-20T11:26:06;63.58;;;18.98;;
25948;SDS011;13961;51.178;4.448;2022-11-20T11:29:03;58.83;;;19.98;;
25948;SDS011;13961;51.178;4.448;2022-11-20T11:31:31;53.33;;;19.08;;
25948;SDS011;13961;51.178;4.448;2022-11-20T11:38:59;52.92;;;17.52;;
25948;SDS011;13961;51.178;4.448;2022-11-20T11:41:30;57.15;;;18.02;;
25948;SDS011;13961;51.178;4.448;2022-11-20T11:55:33;48.67;;;17.70;;
25948;SDS011;13961;51.178;4.448;2022-11-20T12:03:44;49.38;;;16.50;;
25948;SDS011;13961;51.178;4.448;2022-11-20T12:06:27;55.30;;;18.52;;
25948;SDS011;13961;51.178;4.448;2022-11-20T12:09:01;51.90;;;18.55;;
25948;SDS011;13961;51.178;4.448;2022-11-20T12:17:04;44.67;;;17.10;;
25948;SDS011;13961;51.178;4.448;2022-11-20T12:19:34;46.00;;;15.90;;
25948;SDS011;13961;51.178;4.448;2022-11-20T12:25:07;44.38;;;15.43;;
25948;SDS011;13961;51.178;4.448;2022-11-20T12:27:49;40.00;;;14.75;;
25948;SDS011;13961;51.178;4.448;2022-11-20T12:30:18;38.33;;;14.63;;
25948;SDS011;13961;51.178;4.448;2022-11-20T12:41:04;38.90;;;13.82;;
25948;SDS011;13961;51.178;4.448;2022-11-20T12:44:17;36.03;;;12.52;;
25948;SDS011;13961;51.178;4.448;2022-11-20T12:50:08;20.80;;;8.55;;
25948;SDS011;13961;51.178;4.448;2022-11-20T13:01:37;8.07;;;3.85;;
25948;SDS011;13961;51.178;4.448;2022-11-20T13:06:51;7.18;;;3.25;;
25948;SDS011;13961;51.178;4.448;2022-11-20T13:09:18;13.02;;;3.92;;
25948;SDS011;13961;51.178;4.448;2022-11-20T13:17:40;9.68;;;4.07;;
25948;SDS011;13961;51.178;4.448;2022-11-20T13:20:14;11.98;;;4.43;;
25948;SDS011;13961;51.178;4.448;2022-11-20T13:22:46;9.57;;;3.83;;
25948;SDS011;13961;51.178;4.448;2022-11-20T13:25:32;10.18;;;4.10;;
25948;SDS011;13961;51.178;4.448;2022-11-20T13:28:04;6.78;;;3.97;;
25948;SDS011;13961;51.178;4.448;2022-11-20T13:30:50;9.50;;;3.92;;
25948;SDS011;13961;51.178;4.448;2022-11-20T13:33:22;12.70;;;4.60;;
25948;SDS011;13961;51.178;4.448;2022-11-20T13:36:03;9.35;;;3.92;;
25948;SDS011;13961;51.178;4.448;2022-11-20T13:38:46;14.10;;;3.67;;
25948;SDS011;13961;51.178;4.448;2022-11-20T13:47:27;10.95;;;4.57;;
25948;SDS011;13961;51.178;4.448;2022-11-20T13:49:52;11.77;;;3.85;;
25948;SDS011;13961;51.178;4.448;2022-11-20T13:52:37;8.88;;;3.78;;
25948;SDS011;13961;51.178;4.448;2022-11-20T14:03:41;10.10;;;4.20;;
25948;SDS011;13961;51.178;4.448;2022-11-20T14:08:51;10.93;;;4.68;;
25948;SDS011;13961;51.178;4.448;2022-11-20T14:11:21;8.88;;;5.05;;
25948;SDS011;13961;51.178;4.448;2022-11-20T14:13:55;12.13;;;4.53;;
25948;SDS011;13961;51.178;4.448;2022-11-20T14:16:43;11.38;;;4.97;;
25948;SDS011;13961;51.178;4.448;2022-11-20T14:19:25;11.57;;;5.10;;
25948;SDS011;13961;51.178;4.448;2022-11-20T14:21:55;8.93;;;5.03;;
25948;SDS011;13961;51.178;4.448;2022-11-20T14:24:46;9.18;;;4.93;;
25948;SDS011;13961;51.178;4.448;2022-11-20T14:27:19;8.13;;;5.00;;
25948;SDS011;13961;51.178;4.448;2022-11-20T14:29:47;9.18;;;4.82;;
25948;SDS011;13961;51.178;4.448;2022-11-20T14:32:17;9.70;;;4.57;;
25948;SDS011;13961;51.178;4.448;2022-11-20T14:34:46;7.57;;;4.80;;
25948;SDS011;13961;51.178;4.448;2022-11-20T14:37:21;9.68;;;5.18;;
25948;SDS011;13961;51.178;4.448;2022-11-20T14:39:52;8.88;;;4.78;;
25948;SDS011;13961;51.178;4.448;2022-11-20T14:44:48;5.30;;;3.90;;
25948;SDS011;13961;51.178;4.448;2022-11-20T14:47:18;8.70;;;4.32;;
25948;SDS011;13961;51.178;4.448;2022-11-20T14:49:47;7.47;;;3.90;;
25948;SDS011;13961;51.178;4.448;2022-11-20T14:52:17;5.80;;;4.35;;
25948;SDS011;13961;51.178;4.448;2022-11-20T14:54:53;7.15;;;4.45;;
25948;SDS011;13961;51.178;4.448;2022-11-20T14:57:23;7.03;;;5.10;;
25948;SDS011;13961;51.178;4.448;2022-11-20T15:00:03;7.55;;;4.25;;
25948;SDS011;13961;51.178;4.448;2022-11-20T15:02:48;4.82;;;3.90;;
25948;SDS011;13961;51.178;4.448;2022-11-20T15:05:15;5.43;;;3.70;;
25948;SDS011;13961;51.178;4.448;2022-11-20T15:07:46;8.43;;;4.10;;
25948;SDS011;13961;51.178;4.448;2022-11-20T15:12:54;7.30;;;4.18;;
25948;SDS011;13961;51.178;4.448;2022-11-20T15:18:03;6.22;;;4.05;;
25948;SDS011;13961;51.178;4.448;2022-11-20T15:20:30;7.15;;;5.00;;
25948;SDS011;13961;51.178;4.448;2022-11-20T15:22:58;7.78;;;4.53;;
25948;SDS011;13961;51.178;4.448;2022-11-20T15:25:26;7.05;;;4.28;;
25948;SDS011;13961;51.178;4.448;2022-11-20T15:27:55;6.05;;;4.03;;
25948;SDS011;13961;51.178;4.448;2022-11-20T15:30:21;7.93;;;4.38;;
25948;SDS011;13961;51.178;4.448;2022-11-20T15:32:48;9.15;;;4.57;;
25948;SDS011;13961;51.178;4.448;2022-11-20T15:35:15;10.40;;;5.22;;
25948;SDS011;13961;51.178;4.448;2022-11-20T15:37:41;11.23;;;7.72;;
25948;SDS011;13961;51.178;4.448;2022-11-20T15:40:07;8.02;;;4.80;;
25948;SDS011;13961;51.178;4.448;2022-11-20T15:42:33;8.88;;;5.25;;
25948;SDS011;13961;51.178;4.448;2022-11-20T15:45:00;7.97;;;4.95;;
25948;SDS011;13961;51.178;4.448;2022-11-20T15:47:28;8.75;;;5.15;;
25948;SDS011;13961;51.178;4.448;2022-11-20T15:49:57;8.15;;;5.55;;
25948;SDS011;13961;51.178;4.448;2022-11-20T15:52:25;6.40;;;4.70;;
25948;SDS011;13961;51.178;4.448;2022-11-20T15:54:51;8.55;;;5.40;;
25948;SDS011;13961;51.178;4.448;2022-11-20T15:57:18;9.57;;;5.22;;
25948;SDS011;13961;51.178;4.448;2022-11-20T15:59:44;9.95;;;5.32;;
25948;SDS011;13961;51.178;4.448;2022-11-20T16:02:11;6.90;;;4.22;;
25948;SDS011;13961;51.178;4.448;2022-11-20T16:04:37;14.68;;;7.63;;
25948;SDS011;13961;51.178;4.448;2022-11-20T16:07:04;11.10;;;5.53;;
25948;SDS011;13961;51.178;4.448;2022-11-20T16:09:31;12.23;;;6.50;;
25948;SDS011;13961;51.178;4.448;2022-11-20T16:11:57;12.98;;;5.70;;
25948;SDS011;13961;51.178;4.448;2022-11-20T16:14:32;18.17;;;6.70;;
25948;SDS011;13961;51.178;4.448;2022-11-20T16:17:16;14.05;;;5.95;;
25948;SDS011;13961;51.178;4.448;2022-11-20T16:20:03;19.73;;;6.05;;
25948;SDS011;13961;51.178;4.448;2022-11-20T16:22:30;18.00;;;5.70;;
25948;SDS011;13961;51.178;4.448;2022-11-20T16:24:56;14.18;;;5.25;;
25948;SDS011;13961;51.178;4.448;2022-11-20T16:27:22;21.48;;;6.80;;
25948;SDS011;13961;51.178;4.448;2022-11-20T16:29:48;14.30;;;4.93;;
25948;SDS011;13961;51.178;4.448;2022-11-20T16:32:13;12.32;;;5.97;;
25948;SDS011;13961;51.178;4.448;2022-11-20T16:34:39;20.40;;;4.88;;
25948;SDS011;13961;51.178;4.448;2022-11-20T16:37:06;19.73;;;5.38;;
25948;SDS011;13961;51.178;4.448;2022-11-20T16:39:33;12.10;;;4.50;;
25948;SDS011;13961;51.178;4.448;2022-11-20T16:42:00;17.15;;;4.75;;
25948;SDS011;13961;51.178;4.448;2022-11-20T16:44:30;15.15;;;4.70;;
25948;SDS011;13961;51.178;4.448;2022-11-20T16:46:55;13.63;;;4.35;;
25948;SDS011;13961;51.178;4.448;2022-11-20T16:49:21;11.30;;;3.42;;
25948;SDS011;13961;51.178;4.448;2022-11-20T16:51:47;12.93;;;4.05;;
25948;SDS011;13961;51.178;4.448;2022-11-20T16:54:13;16.38;;;4.28;;
25948;SDS011;13961;51.178;4.448;2022-11-20T16:56:38;14.95;;;3.65;;
25948;SDS011;13961;51.178;4.448;2022-11-20T16:59:06;18.75;;;3.85;;
25948;SDS011;13961;51.178;4.448;2022-11-20T17:01:31;17.40;;;3.60;;
25948;SDS011;13961;51.178;4.448;2022-11-20T17:06:39;12.23;;;4.13;;
25948;SDS011;13961;51.178;4.448;2022-11-20T17:09:09;22.55;;;4.10;;
25948;SDS011;13961;51.178;4.448;2022-11-20T17:11:36;11.20;;;3.63;;
25948;SDS011;13961;51.178;4.448;2022-11-20T17:14:03;11.55;;;3.17;;
25948;SDS011;13961;51.178;4.448;2022-11-20T17:16:32;22.20;;;3.80;;
25948;SDS011;13961;51.178;4.448;2022-11-20T17:19:00;22.02;;;4.07;;
25948;SDS011;13961;51.178;4.448;2022-11-20T17:21:27;14.07;;;3.83;;
25948;SDS011;13961;51.178;4.448;2022-11-20T17:23:54;18.38;;;3.83;;